sensor_id;sensor_type;location;lat;lon;timestamp;P1;durP1;ratioP1;P2;durP2;ratioP2
72439;SDS011;60446;50.752;4.352;2024-02-26T00:02:21;4.43;;;2.30;;
72439;SDS011;60446;50.752;4.352;2024-02-26T00:04:50;5.77;;;2.00;;
72439;SDS011;60446;50.752;4.352;2024-02-26T00:07:17;4.28;;;1.95;;
72439;SDS011;60446;50.752;4.352;2024-02-26T00:09:44;4.60;;;1.73;;
72439;SDS011;60446;50.752;4.352;2024-02-26T00:12:12;4.82;;;1.67;;
72439;SDS011;60446;50.752;4.352;2024-02-26T00:14:39;4.25;;;1.90;;
72439;SDS011;60446;50.752;4.352;2024-02-26T00:17:10;3.83;;;1.73;;
72439;SDS011;60446;50.752;4.352;2024-02-26T00:19:38;5.53;;;2.20;;
72439;SDS011;60446;50.752;4.352;2024-02-26T00:22:06;5.35;;;1.70;;
72439;SDS011;60446;50.752;4.352;2024-02-26T00:24:33;2.70;;;1.25;;
72439;SDS011;60446;50.752;4.352;2024-02-26T00:27:04;3.75;;;1.58;;
72439;SDS011;60446;50.752;4.352;2024-02-26T00:29:33;3.43;;;1.63;;
72439;SDS011;60446;50.752;4.352;2024-02-26T00:32:01;4.32;;;1.80;;
72439;SDS011;60446;50.752;4.352;2024-02-26T00:34:28;4.63;;;2.55;;
72439;SDS011;60446;50.752;4.352;2024-02-26T00:36:55;4.65;;;1.80;;
72439;SDS011;60446;50.752;4.352;2024-02-26T00:39:22;3.60;;;2.03;;
72439;SDS011;60446;50.752;4.352;2024-02-26T00:41:52;4.10;;;1.70;;
72439;SDS011;60446;50.752;4.352;2024-02-26T00:44:20;4.55;;;1.75;;
72439;SDS011;60446;50.752;4.352;2024-02-26T00:46:47;4.53;;;1.83;;
72439;SDS011;60446;50.752;4.352;2024-02-26T00:49:14;6.50;;;2.00;;
72439;SDS011;60446;50.752;4.352;2024-02-26T00:51:41;5.45;;;2.25;;
72439;SDS011;60446;50.752;4.352;2024-02-26T00:54:08;4.33;;;1.87;;
72439;SDS011;60446;50.752;4.352;2024-02-26T00:56:36;5.28;;;1.98;;
72439;SDS011;60446;50.752;4.352;2024-02-26T00:59:04;6.45;;;2.33;;
72439;SDS011;60446;50.752;4.352;2024-02-26T01:01:31;3.47;;;1.50;;
72439;SDS011;60446;50.752;4.352;2024-02-26T01:03:58;3.67;;;1.83;;
72439;SDS011;60446;50.752;4.352;2024-02-26T01:06:26;3.57;;;1.33;;
72439;SDS011;60446;50.752;4.352;2024-02-26T01:08:53;6.03;;;1.80;;
72439;SDS011;60446;50.752;4.352;2024-02-26T01:11:21;3.70;;;1.65;;
72439;SDS011;60446;50.752;4.352;2024-02-26T01:13:48;3.80;;;1.70;;
72439;SDS011;60446;50.752;4.352;2024-02-26T01:16:19;5.05;;;2.30;;
72439;SDS011;60446;50.752;4.352;2024-02-26T01:18:50;6.13;;;1.13;;
72439;SDS011;60446;50.752;4.352;2024-02-26T01:21:17;4.50;;;2.30;;
72439;SDS011;60446;50.752;4.352;2024-02-26T01:23:45;4.80;;;1.77;;
72439;SDS011;60446;50.752;4.352;2024-02-26T01:26:12;3.30;;;1.50;;
72439;SDS011;60446;50.752;4.352;2024-02-26T01:28:40;2.83;;;1.60;;
72439;SDS011;60446;50.752;4.352;2024-02-26T01:31:08;2.60;;;1.38;;
72439;SDS011;60446;50.752;4.352;2024-02-26T01:33:36;3.58;;;1.75;;
72439;SDS011;60446;50.752;4.352;2024-02-26T01:36:04;3.53;;;1.65;;
72439;SDS011;60446;50.752;4.352;2024-02-26T01:38:31;4.32;;;1.83;;
72439;SDS011;60446;50.752;4.352;2024-02-26T01:40:58;3.85;;;1.63;;
72439;SDS011;60446;50.752;4.352;2024-02-26T01:43:25;4.10;;;1.50;;
72439;SDS011;60446;50.752;4.352;2024-02-26T01:45:52;4.75;;;2.20;;
72439;SDS011;60446;50.752;4.352;2024-02-26T01:48:21;4.25;;;2.47;;
72439;SDS011;60446;50.752;4.352;2024-02-26T01:50:48;3.30;;;1.90;;
72439;SDS011;60446;50.752;4.352;2024-02-26T01:53:15;5.28;;;2.17;;
72439;SDS011;60446;50.752;4.352;2024-02-26T01:55:43;3.73;;;1.73;;
72439;SDS011;60446;50.752;4.352;2024-02-26T01:58:11;4.78;;;2.45;;
72439;SDS011;60446;50.752;4.352;2024-02-26T02:00:39;4.80;;;1.70;;
72439;SDS011;60446;50.752;4.352;2024-02-26T02:03:07;3.17;;;1.45;;
72439;SDS011;60446;50.752;4.352;2024-02-26T02:05:34;5.30;;;2.00;;
72439;SDS011;60446;50.752;4.352;2024-02-26T02:08:09;3.43;;;1.53;;
72439;SDS011;60446;50.752;4.352;2024-02-26T02:10:38;3.50;;;1.88;;
72439;SDS011;60446;50.752;4.352;2024-02-26T02:13:05;5.57;;;2.10;;
72439;SDS011;60446;50.752;4.352;2024-02-26T02:15:33;3.40;;;1.38;;
72439;SDS011;60446;50.752;4.352;2024-02-26T02:18:01;4.80;;;2.30;;
72439;SDS011;60446;50.752;4.352;2024-02-26T02:20:32;3.27;;;1.90;;
72439;SDS011;60446;50.752;4.352;2024-02-26T02:23:00;5.30;;;2.10;;
72439;SDS011;60446;50.752;4.352;2024-02-26T02:25:28;4.93;;;2.35;;
72439;SDS011;60446;50.752;4.352;2024-02-26T02:27:56;3.97;;;1.63;;
72439;SDS011;60446;50.752;4.352;2024-02-26T02:30:24;3.72;;;2.00;;
72439;SDS011;60446;50.752;4.352;2024-02-26T02:32:56;3.57;;;1.97;;
72439;SDS011;60446;50.752;4.352;2024-02-26T02:35:28;2.88;;;1.40;;
72439;SDS011;60446;50.752;4.352;2024-02-26T02:37:55;3.97;;;2.40;;
72439;SDS011;60446;50.752;4.352;2024-02-26T02:40:23;4.10;;;1.67;;
72439;SDS011;60446;50.752;4.352;2024-02-26T02:42:52;4.82;;;2.53;;
72439;SDS011;60446;50.752;4.352;2024-02-26T02:45:19;2.90;;;1.20;;
72439;SDS011;60446;50.752;4.352;2024-02-26T02:47:46;3.70;;;1.90;;
72439;SDS011;60446;50.752;4.352;2024-02-26T02:50:14;4.15;;;1.80;;
72439;SDS011;60446;50.752;4.352;2024-02-26T02:52:41;4.35;;;2.08;;
72439;SDS011;60446;50.752;4.352;2024-02-26T02:55:08;4.85;;;2.08;;
72439;SDS011;60446;50.752;4.352;2024-02-26T02:57:36;4.47;;;2.07;;
72439;SDS011;60446;50.752;4.352;2024-02-26T03:00:10;3.80;;;1.70;;
72439;SDS011;60446;50.752;4.352;2024-02-26T03:02:39;3.97;;;1.80;;
72439;SDS011;60446;50.752;4.352;2024-02-26T03:05:06;4.75;;;1.90;;
72439;SDS011;60446;50.752;4.352;2024-02-26T03:07:34;5.45;;;2.33;;
72439;SDS011;60446;50.752;4.352;2024-02-26T03:10:01;3.30;;;1.57;;
72439;SDS011;60446;50.752;4.352;2024-02-26T03:12:29;4.68;;;2.10;;
72439;SDS011;60446;50.752;4.352;2024-02-26T03:14:58;3.95;;;1.92;;
72439;SDS011;60446;50.752;4.352;2024-02-26T03:17:30;3.05;;;1.33;;
72439;SDS011;60446;50.752;4.352;2024-02-26T03:19:58;3.85;;;1.95;;
72439;SDS011;60446;50.752;4.352;2024-02-26T03:22:25;3.85;;;1.27;;
72439;SDS011;60446;50.752;4.352;2024-02-26T03:24:52;4.38;;;1.65;;
72439;SDS011;60446;50.752;4.352;2024-02-26T03:27:19;3.42;;;1.52;;
72439;SDS011;60446;50.752;4.352;2024-02-26T03:29:47;3.67;;;1.70;;
72439;SDS011;60446;50.752;4.352;2024-02-26T03:32:14;4.15;;;2.25;;
72439;SDS011;60446;50.752;4.352;2024-02-26T03:34:41;7.17;;;1.73;;
72439;SDS011;60446;50.752;4.352;2024-02-26T03:37:08;4.07;;;2.03;;
72439;SDS011;60446;50.752;4.352;2024-02-26T03:39:37;3.85;;;1.63;;
72439;SDS011;60446;50.752;4.352;2024-02-26T03:42:06;3.92;;;1.63;;
72439;SDS011;60446;50.752;4.352;2024-02-26T03:44:33;5.90;;;2.42;;
72439;SDS011;60446;50.752;4.352;2024-02-26T03:47:00;5.07;;;2.33;;
72439;SDS011;60446;50.752;4.352;2024-02-26T03:49:27;9.15;;;2.03;;
72439;SDS011;60446;50.752;4.352;2024-02-26T03:51:54;3.85;;;1.83;;
72439;SDS011;60446;50.752;4.352;2024-02-26T03:54:23;6.72;;;2.10;;
72439;SDS011;60446;50.752;4.352;2024-02-26T03:56:50;4.63;;;2.25;;
72439;SDS011;60446;50.752;4.352;2024-02-26T03:59:17;5.20;;;2.23;;
72439;SDS011;60446;50.752;4.352;2024-02-26T04:01:45;3.83;;;1.60;;
72439;SDS011;60446;50.752;4.352;2024-02-26T04:04:16;4.53;;;2.30;;
72439;SDS011;60446;50.752;4.352;2024-02-26T04:06:44;4.32;;;2.03;;
72439;SDS011;60446;50.752;4.352;2024-02-26T04:09:13;4.22;;;2.05;;
72439;SDS011;60446;50.752;4.352;2024-02-26T04:11:41;4.75;;;2.13;;
72439;SDS011;60446;50.752;4.352;2024-02-26T04:14:10;5.22;;;2.42;;
72439;SDS011;60446;50.752;4.352;2024-02-26T04:16:38;4.10;;;1.95;;
72439;SDS011;60446;50.752;4.352;2024-02-26T04:19:06;4.43;;;1.95;;
72439;SDS011;60446;50.752;4.352;2024-02-26T04:21:34;4.47;;;2.17;;
72439;SDS011;60446;50.752;4.352;2024-02-26T04:24:01;8.40;;;2.20;;
72439;SDS011;60446;50.752;4.352;2024-02-26T04:26:29;4.30;;;2.35;;
72439;SDS011;60446;50.752;4.352;2024-02-26T04:28:57;5.55;;;2.50;;
72439;SDS011;60446;50.752;4.352;2024-02-26T04:31:24;4.43;;;1.90;;
72439;SDS011;60446;50.752;4.352;2024-02-26T04:33:52;4.95;;;2.13;;
72439;SDS011;60446;50.752;4.352;2024-02-26T04:36:20;4.00;;;1.77;;
72439;SDS011;60446;50.752;4.352;2024-02-26T04:38:47;3.75;;;1.65;;
72439;SDS011;60446;50.752;4.352;2024-02-26T04:41:14;5.07;;;2.28;;
72439;SDS011;60446;50.752;4.352;2024-02-26T04:43:42;7.35;;;2.25;;
72439;SDS011;60446;50.752;4.352;2024-02-26T04:46:09;5.72;;;2.35;;
72439;SDS011;60446;50.752;4.352;2024-02-26T04:48:37;4.85;;;2.28;;
72439;SDS011;60446;50.752;4.352;2024-02-26T04:51:05;5.88;;;2.97;;
72439;SDS011;60446;50.752;4.352;2024-02-26T04:53:32;5.18;;;2.67;;
72439;SDS011;60446;50.752;4.352;2024-02-26T04:55:59;4.50;;;1.80;;
72439;SDS011;60446;50.752;4.352;2024-02-26T04:58:26;5.60;;;2.60;;
72439;SDS011;60446;50.752;4.352;2024-02-26T05:00:54;6.80;;;2.40;;
72439;SDS011;60446;50.752;4.352;2024-02-26T05:03:22;4.45;;;2.17;;
72439;SDS011;60446;50.752;4.352;2024-02-26T05:05:49;5.95;;;2.10;;
72439;SDS011;60446;50.752;4.352;2024-02-26T05:08:16;5.07;;;2.30;;
72439;SDS011;60446;50.752;4.352;2024-02-26T05:10:45;3.30;;;2.08;;
72439;SDS011;60446;50.752;4.352;2024-02-26T05:13:12;6.25;;;2.25;;
72439;SDS011;60446;50.752;4.352;2024-02-26T05:15:41;4.95;;;1.75;;
72439;SDS011;60446;50.752;4.352;2024-02-26T05:18:09;4.28;;;1.92;;
72439;SDS011;60446;50.752;4.352;2024-02-26T05:20:36;5.93;;;2.85;;
72439;SDS011;60446;50.752;4.352;2024-02-26T05:23:04;5.18;;;2.47;;
72439;SDS011;60446;50.752;4.352;2024-02-26T05:25:31;5.10;;;2.35;;
72439;SDS011;60446;50.752;4.352;2024-02-26T05:27:58;6.60;;;2.97;;
72439;SDS011;60446;50.752;4.352;2024-02-26T05:30:26;7.18;;;2.97;;
72439;SDS011;60446;50.752;4.352;2024-02-26T05:32:54;6.13;;;2.40;;
72439;SDS011;60446;50.752;4.352;2024-02-26T05:35:21;5.93;;;3.22;;
72439;SDS011;60446;50.752;4.352;2024-02-26T05:37:49;5.60;;;2.55;;
72439;SDS011;60446;50.752;4.352;2024-02-26T05:40:16;7.18;;;3.70;;
72439;SDS011;60446;50.752;4.352;2024-02-26T05:42:43;5.25;;;2.72;;
72439;SDS011;60446;50.752;4.352;2024-02-26T05:45:15;7.15;;;3.00;;
72439;SDS011;60446;50.752;4.352;2024-02-26T05:47:43;6.18;;;2.72;;
72439;SDS011;60446;50.752;4.352;2024-02-26T05:50:10;9.80;;;4.03;;
72439;SDS011;60446;50.752;4.352;2024-02-26T05:52:40;8.70;;;3.22;;
72439;SDS011;60446;50.752;4.352;2024-02-26T05:55:08;6.95;;;3.00;;
72439;SDS011;60446;50.752;4.352;2024-02-26T05:57:35;7.20;;;3.47;;
72439;SDS011;60446;50.752;4.352;2024-02-26T06:00:03;8.77;;;3.63;;
72439;SDS011;60446;50.752;4.352;2024-02-26T06:02:38;5.70;;;2.83;;
72439;SDS011;60446;50.752;4.352;2024-02-26T06:05:05;8.05;;;2.97;;
72439;SDS011;60446;50.752;4.352;2024-02-26T06:07:33;8.82;;;4.25;;
72439;SDS011;60446;50.752;4.352;2024-02-26T06:10:01;6.95;;;3.08;;
72439;SDS011;60446;50.752;4.352;2024-02-26T06:12:31;8.32;;;3.55;;
72439;SDS011;60446;50.752;4.352;2024-02-26T06:15:01;9.05;;;3.38;;
72439;SDS011;60446;50.752;4.352;2024-02-26T06:17:28;6.47;;;3.53;;
72439;SDS011;60446;50.752;4.352;2024-02-26T06:19:55;9.07;;;4.22;;
72439;SDS011;60446;50.752;4.352;2024-02-26T06:22:23;7.93;;;3.83;;
72439;SDS011;60446;50.752;4.352;2024-02-26T06:24:50;6.60;;;3.45;;
72439;SDS011;60446;50.752;4.352;2024-02-26T06:27:17;10.85;;;3.80;;
72439;SDS011;60446;50.752;4.352;2024-02-26T06:29:44;9.45;;;4.65;;
72439;SDS011;60446;50.752;4.352;2024-02-26T06:32:12;8.65;;;4.28;;
72439;SDS011;60446;50.752;4.352;2024-02-26T06:34:40;8.43;;;4.60;;
72439;SDS011;60446;50.752;4.352;2024-02-26T06:37:08;9.20;;;4.38;;
72439;SDS011;60446;50.752;4.352;2024-02-26T06:39:35;8.47;;;4.60;;
72439;SDS011;60446;50.752;4.352;2024-02-26T06:42:02;7.78;;;4.78;;
72439;SDS011;60446;50.752;4.352;2024-02-26T06:44:30;13.40;;;5.45;;
72439;SDS011;60446;50.752;4.352;2024-02-26T06:47:00;11.80;;;4.93;;
72439;SDS011;60446;50.752;4.352;2024-02-26T06:49:28;10.57;;;4.70;;
72439;SDS011;60446;50.752;4.352;2024-02-26T06:51:56;9.40;;;4.03;;
72439;SDS011;60446;50.752;4.352;2024-02-26T06:54:23;10.52;;;4.72;;
72439;SDS011;60446;50.752;4.352;2024-02-26T06:56:51;11.40;;;5.88;;
72439;SDS011;60446;50.752;4.352;2024-02-26T06:59:18;9.88;;;4.30;;
72439;SDS011;60446;50.752;4.352;2024-02-26T07:01:46;9.05;;;4.32;;
72439;SDS011;60446;50.752;4.352;2024-02-26T07:04:13;9.80;;;5.50;;
72439;SDS011;60446;50.752;4.352;2024-02-26T07:06:41;10.60;;;5.25;;
72439;SDS011;60446;50.752;4.352;2024-02-26T07:09:09;11.82;;;5.40;;
72439;SDS011;60446;50.752;4.352;2024-02-26T07:11:38;10.25;;;4.72;;
72439;SDS011;60446;50.752;4.352;2024-02-26T07:14:10;9.02;;;4.80;;
72439;SDS011;60446;50.752;4.352;2024-02-26T07:16:38;12.02;;;5.40;;
72439;SDS011;60446;50.752;4.352;2024-02-26T07:19:05;11.82;;;5.40;;
72439;SDS011;60446;50.752;4.352;2024-02-26T07:21:33;12.82;;;6.45;;
72439;SDS011;60446;50.752;4.352;2024-02-26T07:24:00;8.52;;;4.10;;
72439;SDS011;60446;50.752;4.352;2024-02-26T07:26:29;12.43;;;8.73;;
72439;SDS011;60446;50.752;4.352;2024-02-26T07:28:57;11.88;;;5.70;;
72439;SDS011;60446;50.752;4.352;2024-02-26T07:31:24;10.80;;;5.03;;
72439;SDS011;60446;50.752;4.352;2024-02-26T07:33:52;10.98;;;5.97;;
72439;SDS011;60446;50.752;4.352;2024-02-26T07:36:19;12.02;;;6.15;;
72439;SDS011;60446;50.752;4.352;2024-02-26T07:38:47;12.45;;;6.72;;
72439;SDS011;60446;50.752;4.352;2024-02-26T07:41:15;9.70;;;4.57;;
72439;SDS011;60446;50.752;4.352;2024-02-26T07:43:43;12.27;;;5.65;;
72439;SDS011;60446;50.752;4.352;2024-02-26T07:46:13;12.07;;;5.93;;
72439;SDS011;60446;50.752;4.352;2024-02-26T07:48:40;12.13;;;5.80;;
72439;SDS011;60446;50.752;4.352;2024-02-26T07:51:08;9.18;;;4.30;;
72439;SDS011;60446;50.752;4.352;2024-02-26T07:53:40;11.03;;;6.40;;
72439;SDS011;60446;50.752;4.352;2024-02-26T07:56:08;11.13;;;4.78;;
72439;SDS011;60446;50.752;4.352;2024-02-26T07:58:36;12.82;;;5.55;;
72439;SDS011;60446;50.752;4.352;2024-02-26T08:01:03;12.43;;;5.90;;
72439;SDS011;60446;50.752;4.352;2024-02-26T08:03:30;10.82;;;6.00;;
72439;SDS011;60446;50.752;4.352;2024-02-26T08:05:57;10.23;;;4.67;;
72439;SDS011;60446;50.752;4.352;2024-02-26T08:08:25;10.35;;;4.65;;
72439;SDS011;60446;50.752;4.352;2024-02-26T08:10:52;13.00;;;6.50;;
72439;SDS011;60446;50.752;4.352;2024-02-26T08:13:19;10.70;;;6.47;;
72439;SDS011;60446;50.752;4.352;2024-02-26T08:15:46;15.80;;;6.68;;
72439;SDS011;60446;50.752;4.352;2024-02-26T08:18:13;7.40;;;3.53;;
72439;SDS011;60446;50.752;4.352;2024-02-26T08:20:41;11.05;;;4.25;;
72439;SDS011;60446;50.752;4.352;2024-02-26T08:23:08;11.65;;;5.57;;
72439;SDS011;60446;50.752;4.352;2024-02-26T08:25:35;11.32;;;5.32;;
72439;SDS011;60446;50.752;4.352;2024-02-26T08:28:03;9.40;;;5.53;;
72439;SDS011;60446;50.752;4.352;2024-02-26T08:30:31;12.13;;;5.72;;
72439;SDS011;60446;50.752;4.352;2024-02-26T08:33:01;8.90;;;3.72;;
72439;SDS011;60446;50.752;4.352;2024-02-26T08:35:28;10.05;;;5.03;;
72439;SDS011;60446;50.752;4.352;2024-02-26T08:37:55;11.70;;;5.45;;
72439;SDS011;60446;50.752;4.352;2024-02-26T08:40:23;12.15;;;6.15;;
72439;SDS011;60446;50.752;4.352;2024-02-26T08:42:50;9.23;;;5.13;;
72439;SDS011;60446;50.752;4.352;2024-02-26T08:45:17;10.98;;;4.80;;
72439;SDS011;60446;50.752;4.352;2024-02-26T08:47:45;11.68;;;5.45;;
72439;SDS011;60446;50.752;4.352;2024-02-26T08:50:13;11.13;;;5.28;;
72439;SDS011;60446;50.752;4.352;2024-02-26T08:52:41;7.95;;;4.68;;
72439;SDS011;60446;50.752;4.352;2024-02-26T08:55:08;9.35;;;5.10;;
72439;SDS011;60446;50.752;4.352;2024-02-26T08:57:36;9.48;;;5.03;;
72439;SDS011;60446;50.752;4.352;2024-02-26T09:00:05;10.60;;;5.20;;
72439;SDS011;60446;50.752;4.352;2024-02-26T09:02:33;9.57;;;4.90;;
72439;SDS011;60446;50.752;4.352;2024-02-26T09:05:00;10.95;;;5.18;;
72439;SDS011;60446;50.752;4.352;2024-02-26T09:07:27;12.32;;;5.15;;
72439;SDS011;60446;50.752;4.352;2024-02-26T09:09:55;10.80;;;5.28;;
72439;SDS011;60446;50.752;4.352;2024-02-26T09:12:23;10.73;;;5.68;;
72439;SDS011;60446;50.752;4.352;2024-02-26T09:14:50;9.38;;;4.50;;
72439;SDS011;60446;50.752;4.352;2024-02-26T09:17:17;10.00;;;5.05;;
72439;SDS011;60446;50.752;4.352;2024-02-26T09:19:44;8.52;;;3.33;;
72439;SDS011;60446;50.752;4.352;2024-02-26T09:22:11;10.80;;;4.88;;
72439;SDS011;60446;50.752;4.352;2024-02-26T09:24:43;9.13;;;4.25;;
72439;SDS011;60446;50.752;4.352;2024-02-26T09:27:10;11.40;;;5.57;;
72439;SDS011;60446;50.752;4.352;2024-02-26T09:29:37;12.27;;;6.15;;
72439;SDS011;60446;50.752;4.352;2024-02-26T09:32:04;9.67;;;4.77;;
72439;SDS011;60446;50.752;4.352;2024-02-26T09:34:32;12.02;;;5.28;;
72439;SDS011;60446;50.752;4.352;2024-02-26T09:37:00;12.75;;;5.80;;
72439;SDS011;60446;50.752;4.352;2024-02-26T09:39:41;10.63;;;5.00;;
72439;SDS011;60446;50.752;4.352;2024-02-26T09:42:09;11.63;;;5.63;;
72439;SDS011;60446;50.752;4.352;2024-02-26T09:44:39;11.77;;;5.10;;
72439;SDS011;60446;50.752;4.352;2024-02-26T09:47:10;10.85;;;5.15;;
72439;SDS011;60446;50.752;4.352;2024-02-26T09:49:43;9.80;;;5.05;;
72439;SDS011;60446;50.752;4.352;2024-02-26T09:52:13;10.38;;;4.50;;
72439;SDS011;60446;50.752;4.352;2024-02-26T09:54:42;9.88;;;4.60;;
72439;SDS011;60446;50.752;4.352;2024-02-26T09:57:14;12.80;;;4.73;;
72439;SDS011;60446;50.752;4.352;2024-02-26T09:59:44;9.38;;;5.30;;
72439;SDS011;60446;50.752;4.352;2024-02-26T10:02:14;9.02;;;3.65;;
72439;SDS011;60446;50.752;4.352;2024-02-26T10:04:44;7.35;;;3.45;;
72439;SDS011;60446;50.752;4.352;2024-02-26T10:07:18;10.10;;;4.45;;
72439;SDS011;60446;50.752;4.352;2024-02-26T10:09:45;8.73;;;4.43;;
72439;SDS011;60446;50.752;4.352;2024-02-26T10:12:12;10.38;;;4.47;;
72439;SDS011;60446;50.752;4.352;2024-02-26T10:14:43;7.93;;;3.70;;
72439;SDS011;60446;50.752;4.352;2024-02-26T10:17:11;8.05;;;3.55;;
72439;SDS011;60446;50.752;4.352;2024-02-26T10:19:39;5.82;;;3.45;;
72439;SDS011;60446;50.752;4.352;2024-02-26T10:22:06;6.63;;;3.93;;
72439;SDS011;60446;50.752;4.352;2024-02-26T10:24:33;8.75;;;3.75;;
72439;SDS011;60446;50.752;4.352;2024-02-26T10:27:01;7.75;;;2.88;;
72439;SDS011;60446;50.752;4.352;2024-02-26T10:29:29;8.82;;;5.03;;
72439;SDS011;60446;50.752;4.352;2024-02-26T10:31:58;8.63;;;3.53;;
72439;SDS011;60446;50.752;4.352;2024-02-26T10:34:25;8.55;;;4.35;;
72439;SDS011;60446;50.752;4.352;2024-02-26T10:36:54;7.45;;;3.78;;
72439;SDS011;60446;50.752;4.352;2024-02-26T10:39:22;8.10;;;4.28;;
72439;SDS011;60446;50.752;4.352;2024-02-26T10:41:49;8.73;;;3.95;;
72439;SDS011;60446;50.752;4.352;2024-02-26T10:44:17;7.85;;;4.68;;
72439;SDS011;60446;50.752;4.352;2024-02-26T10:46:48;6.43;;;3.37;;
72439;SDS011;60446;50.752;4.352;2024-02-26T10:49:22;7.63;;;3.63;;
72439;SDS011;60446;50.752;4.352;2024-02-26T10:51:56;8.85;;;3.97;;
72439;SDS011;60446;50.752;4.352;2024-02-26T10:54:25;6.03;;;3.53;;
72439;SDS011;60446;50.752;4.352;2024-02-26T10:56:56;7.57;;;4.05;;
72439;SDS011;60446;50.752;4.352;2024-02-26T10:59:26;6.67;;;3.27;;
72439;SDS011;60446;50.752;4.352;2024-02-26T11:01:53;9.13;;;4.78;;
72439;SDS011;60446;50.752;4.352;2024-02-26T11:04:22;7.20;;;3.50;;
72439;SDS011;60446;50.752;4.352;2024-02-26T11:06:51;6.10;;;3.08;;
72439;SDS011;60446;50.752;4.352;2024-02-26T11:09:23;7.45;;;3.97;;
72439;SDS011;60446;50.752;4.352;2024-02-26T11:11:53;7.45;;;3.75;;
72439;SDS011;60446;50.752;4.352;2024-02-26T11:14:22;7.82;;;3.30;;
72439;SDS011;60446;50.752;4.352;2024-02-26T11:16:52;9.27;;;4.38;;
72439;SDS011;60446;50.752;4.352;2024-02-26T11:19:22;9.55;;;3.88;;
72439;SDS011;60446;50.752;4.352;2024-02-26T11:21:53;8.82;;;4.50;;
72439;SDS011;60446;50.752;4.352;2024-02-26T11:24:20;7.35;;;3.72;;
72439;SDS011;60446;50.752;4.352;2024-02-26T11:26:50;8.43;;;4.00;;
72439;SDS011;60446;50.752;4.352;2024-02-26T11:29:28;8.88;;;3.92;;
72439;SDS011;60446;50.752;4.352;2024-02-26T11:32:04;8.80;;;4.15;;
72439;SDS011;60446;50.752;4.352;2024-02-26T11:34:32;7.20;;;3.50;;
72439;SDS011;60446;50.752;4.352;2024-02-26T11:37:09;7.35;;;3.67;;
72439;SDS011;60446;50.752;4.352;2024-02-26T11:39:41;6.75;;;3.17;;
72439;SDS011;60446;50.752;4.352;2024-02-26T11:42:09;6.55;;;2.92;;
72439;SDS011;60446;50.752;4.352;2024-02-26T11:44:37;7.35;;;3.05;;
72439;SDS011;60446;50.752;4.352;2024-02-26T11:47:09;6.88;;;3.05;;
72439;SDS011;60446;50.752;4.352;2024-02-26T11:49:38;6.53;;;2.57;;
72439;SDS011;60446;50.752;4.352;2024-02-26T11:52:07;6.13;;;3.28;;
72439;SDS011;60446;50.752;4.352;2024-02-26T11:54:56;6.18;;;3.35;;
72439;SDS011;60446;50.752;4.352;2024-02-26T11:59:55;6.32;;;3.95;;
72439;SDS011;60446;50.752;4.352;2024-02-26T12:05:30;5.35;;;2.25;;
72439;SDS011;60446;50.752;4.352;2024-02-26T12:08:00;5.00;;;2.38;;
72439;SDS011;60446;50.752;4.352;2024-02-26T12:13:08;6.15;;;2.60;;
72439;SDS011;60446;50.752;4.352;2024-02-26T12:15:46;5.77;;;2.90;;
72439;SDS011;60446;50.752;4.352;2024-02-26T12:18:24;6.60;;;3.30;;
72439;SDS011;60446;50.752;4.352;2024-02-26T12:21:02;6.82;;;3.70;;
72439;SDS011;60446;50.752;4.352;2024-02-26T12:23:31;6.60;;;2.70;;
72439;SDS011;60446;50.752;4.352;2024-02-26T12:25:59;5.68;;;2.90;;
72439;SDS011;60446;50.752;4.352;2024-02-26T12:28:30;5.73;;;2.40;;
72439;SDS011;60446;50.752;4.352;2024-02-26T12:30:57;6.57;;;3.13;;
72439;SDS011;60446;50.752;4.352;2024-02-26T12:33:26;6.10;;;2.83;;
72439;SDS011;60446;50.752;4.352;2024-02-26T12:35:56;5.47;;;2.70;;
72439;SDS011;60446;50.752;4.352;2024-02-26T12:38:25;7.10;;;3.72;;
72439;SDS011;60446;50.752;4.352;2024-02-26T12:40:53;6.72;;;3.35;;
72439;SDS011;60446;50.752;4.352;2024-02-26T12:43:21;4.30;;;2.70;;
72439;SDS011;60446;50.752;4.352;2024-02-26T12:45:48;7.18;;;3.20;;
72439;SDS011;60446;50.752;4.352;2024-02-26T12:48:16;6.32;;;3.10;;
72439;SDS011;60446;50.752;4.352;2024-02-26T12:50:44;6.47;;;3.40;;
72439;SDS011;60446;50.752;4.352;2024-02-26T12:53:14;5.97;;;2.70;;
72439;SDS011;60446;50.752;4.352;2024-02-26T12:55:42;6.00;;;2.60;;
72439;SDS011;60446;50.752;4.352;2024-02-26T12:58:10;6.57;;;2.97;;
72439;SDS011;60446;50.752;4.352;2024-02-26T13:00:38;5.13;;;2.90;;
72439;SDS011;60446;50.752;4.352;2024-02-26T13:03:07;5.78;;;3.42;;
72439;SDS011;60446;50.752;4.352;2024-02-26T13:05:35;5.60;;;3.10;;
72439;SDS011;60446;50.752;4.352;2024-02-26T13:08:03;5.53;;;3.08;;
72439;SDS011;60446;50.752;4.352;2024-02-26T13:10:34;4.68;;;2.50;;
72439;SDS011;60446;50.752;4.352;2024-02-26T13:13:02;6.35;;;2.83;;
72439;SDS011;60446;50.752;4.352;2024-02-26T13:15:30;4.53;;;2.53;;
72439;SDS011;60446;50.752;4.352;2024-02-26T13:17:59;5.90;;;3.10;;
72439;SDS011;60446;50.752;4.352;2024-02-26T13:20:37;6.45;;;3.17;;
72439;SDS011;60446;50.752;4.352;2024-02-26T13:23:07;6.30;;;2.90;;
72439;SDS011;60446;50.752;4.352;2024-02-26T13:25:37;6.28;;;3.17;;
72439;SDS011;60446;50.752;4.352;2024-02-26T13:28:18;6.82;;;3.58;;
72439;SDS011;60446;50.752;4.352;2024-02-26T13:30:55;6.90;;;2.90;;
72439;SDS011;60446;50.752;4.352;2024-02-26T13:33:24;5.97;;;2.95;;
72439;SDS011;60446;50.752;4.352;2024-02-26T13:35:56;7.65;;;3.80;;
72439;SDS011;60446;50.752;4.352;2024-02-26T13:38:27;6.63;;;3.40;;
72439;SDS011;60446;50.752;4.352;2024-02-26T13:40:55;7.47;;;4.05;;
72439;SDS011;60446;50.752;4.352;2024-02-26T13:43:22;7.03;;;3.45;;
72439;SDS011;60446;50.752;4.352;2024-02-26T13:45:49;7.10;;;3.20;;
72439;SDS011;60446;50.752;4.352;2024-02-26T13:48:17;6.72;;;3.47;;
72439;SDS011;60446;50.752;4.352;2024-02-26T13:50:45;8.88;;;4.22;;
72439;SDS011;60446;50.752;4.352;2024-02-26T13:53:13;8.88;;;4.40;;
72439;SDS011;60446;50.752;4.352;2024-02-26T13:55:41;6.07;;;3.15;;
72439;SDS011;60446;50.752;4.352;2024-02-26T13:58:12;7.03;;;3.53;;
72439;SDS011;60446;50.752;4.352;2024-02-26T14:00:40;9.80;;;4.90;;
72439;SDS011;60446;50.752;4.352;2024-02-26T14:03:09;9.15;;;4.85;;
72439;SDS011;60446;50.752;4.352;2024-02-26T14:05:38;9.45;;;4.50;;
72439;SDS011;60446;50.752;4.352;2024-02-26T14:08:09;10.25;;;4.43;;
72439;SDS011;60446;50.752;4.352;2024-02-26T14:10:36;8.05;;;4.07;;
72439;SDS011;60446;50.752;4.352;2024-02-26T14:13:04;8.75;;;4.28;;
72439;SDS011;60446;50.752;4.352;2024-02-26T14:15:32;9.07;;;3.58;;
72439;SDS011;60446;50.752;4.352;2024-02-26T14:18:02;8.60;;;4.50;;
72439;SDS011;60446;50.752;4.352;2024-02-26T14:20:30;10.00;;;5.13;;
72439;SDS011;60446;50.752;4.352;2024-02-26T14:22:59;8.75;;;4.90;;
72439;SDS011;60446;50.752;4.352;2024-02-26T14:25:27;11.27;;;5.38;;
72439;SDS011;60446;50.752;4.352;2024-02-26T14:27:57;9.27;;;4.47;;
72439;SDS011;60446;50.752;4.352;2024-02-26T14:30:25;10.23;;;5.00;;
72439;SDS011;60446;50.752;4.352;2024-02-26T14:32:53;10.23;;;4.97;;
72439;SDS011;60446;50.752;4.352;2024-02-26T14:35:21;9.20;;;5.47;;
72439;SDS011;60446;50.752;4.352;2024-02-26T14:37:49;9.57;;;5.63;;
72439;SDS011;60446;50.752;4.352;2024-02-26T14:40:16;10.55;;;5.05;;
72439;SDS011;60446;50.752;4.352;2024-02-26T14:42:44;8.57;;;5.13;;
72439;SDS011;60446;50.752;4.352;2024-02-26T14:45:11;11.77;;;4.35;;
72439;SDS011;60446;50.752;4.352;2024-02-26T14:47:39;9.85;;;4.40;;
72439;SDS011;60446;50.752;4.352;2024-02-26T14:50:07;11.50;;;5.82;;
72439;SDS011;60446;50.752;4.352;2024-02-26T14:52:35;10.80;;;4.35;;
72439;SDS011;60446;50.752;4.352;2024-02-26T14:55:02;11.25;;;6.57;;
72439;SDS011;60446;50.752;4.352;2024-02-26T14:57:29;10.85;;;5.22;;
72439;SDS011;60446;50.752;4.352;2024-02-26T14:59:56;10.55;;;4.55;;
72439;SDS011;60446;50.752;4.352;2024-02-26T15:02:24;10.98;;;6.00;;